Time;durP1;ratioP1;P1;durP2;ratioP2;P2;SDS_P1;SDS_P2;PMS_P1;PMS_P2;Temp;Humidity;BMP_temperature;BMP_pressure;BME280_temperature;BME280_humidity;BME280_pressure;Samples;Min_cycle;Max_cycle;Signal;HPM_P1;HPM_P2
2022/06/11 00:01:30;;;;;;;12.50;3.22;;;;;;;15.04;100.00;102042.13;5022715;28;20087;-63
2022/06/11 00:03:59;;;;;;;12.15;3.20;;;;;;;15.01;100.00;102036.91;5035463;28;20411;-62
2022/06/11 00:06:26;;;;;;;12.35;3.45;;;;;;;14.98;100.00;102045.91;5034401;28;20056;-63
2022/06/11 00:08:53;;;;;;;13.35;2.88;;;;;;;14.94;100.00;102030.97;5034622;28;20046;-65
2022/06/11 00:11:19;;;;;;;10.57;3.13;;;;;;;14.94;100.00;102038.13;5034808;28;20384;-64
2022/06/11 00:13:45;;;;;;;12.75;3.45;;;;;;;14.96;100.00;102044.25;5033861;28;20368;-63
2022/06/11 00:16:14;;;;;;;14.13;3.60;;;;;;;14.99;100.00;102042.31;5035241;28;20087;-63
2022/06/11 00:18:42;;;;;;;12.98;3.42;;;;;;;15.04;100.00;102040.31;5033337;28;20022;-63
2022/06/11 00:21:08;;;;;;;10.75;3.40;;;;;;;15.04;100.00;102040.31;5033299;28;20033;-64
2022/06/11 00:23:35;;;;;;;8.70;2.67;;;;;;;15.07;100.00;102029.47;5033939;28;20040;-64
2022/06/11 00:26:02;;;;;;;9.57;3.40;;;;;;;15.06;100.00;102033.13;5035154;28;20026;-64
2022/06/11 00:28:28;;;;;;;7.85;2.78;;;;;;;15.11;100.00;102018.69;5034899;28;20026;-64
2022/06/11 00:30:53;;;;;;;8.00;2.50;;;;;;;15.11;100.00;102027.56;5033039;28;20451;-62
2022/06/11 00:33:20;;;;;;;13.45;2.83;;;;;;;15.13;100.00;102032.81;5033884;28;20032;-65
2022/06/11 00:35:46;;;;;;;10.48;3.70;;;;;;;15.14;100.00;102023.88;5033497;28;20523;-65
2022/06/11 00:38:12;;;;;;;8.75;2.92;;;;;;;15.14;100.00;102034.56;5034403;28;20029;-64
2022/06/11 00:40:40;;;;;;;13.18;3.03;;;;;;;15.14;100.00;102031.88;5033142;28;20036;-64
2022/06/11 00:43:06;;;;;;;6.93;2.60;;;;;;;15.14;100.00;102030.09;5016569;28;20036;-63
2022/06/11 00:45:46;;;;;;;7.72;3.10;;;;;;;15.16;100.00;102027.34;5033633;28;20025;-64
2022/06/11 00:48:18;;;;;;;10.80;2.90;;;;;;;15.16;100.00;102038.03;5032967;28;20049;-65
2022/06/11 00:50:51;;;;;;;8.90;3.20;;;;;;;15.15;100.00;102037.13;5034340;28;20030;-64
2022/06/11 00:53:24;;;;;;;11.30;2.75;;;;;;;15.12;100.00;102039.09;5034177;28;20055;-64
2022/06/11 00:55:50;;;;;;;11.93;2.80;;;;;;;15.11;100.00;102038.22;5033069;28;20116;-64
2022/06/11 00:58:20;;;;;;;8.32;2.75;;;;;;;15.09;100.00;102029.44;5033857;28;20136;-64
2022/06/11 01:00:52;;;;;;;9.85;2.80;;;;;;;15.07;100.00;102032.16;5034122;28;20087;-64
2022/06/11 01:03:23;;;;;;;11.15;2.72;;;;;;;15.10;100.00;102028.47;5032910;28;20026;-64
2022/06/11 01:05:53;;;;;;;8.90;2.90;;;;;;;15.12;100.00;102028.44;5034204;28;20037;-64
2022/06/11 01:08:48;;;;;;;10.95;2.95;;;;;;;15.11;100.00;102027.56;5033816;28;20053;-60
2022/06/11 01:11:23;;;;;;;9.02;2.80;;;;;;;15.13;100.00;102024.81;5033860;28;20031;-64
2022/06/11 01:14:06;;;;;;;9.48;3.05;;;;;;;15.13;100.00;102027.47;5033551;28;20108;-65
2022/06/11 01:16:43;;;;;;;6.85;2.72;;;;;;;15.10;100.00;102024.97;5034269;28;20170;-64
2022/06/11 01:19:31;;;;;;;8.10;2.47;;;;;;;15.04;100.00;102026.13;5030520;28;20621;-64
2022/06/11 01:22:29;;;;;;;9.98;2.63;;;;;;;15.05;100.00;102031.38;5031284;28;20030;-64
2022/06/11 01:25:06;;;;;;;11.10;2.75;;;;;;;15.02;100.00;102028.81;5019188;28;20048;-63
2022/06/11 01:27:39;;;;;;;10.05;2.47;;;;;;;15.03;100.00;102030.56;5032841;28;20028;-64
2022/06/11 01:30:04;;;;;;;10.38;2.63;;;;;;;15.02;100.00;102028.81;5033414;28;20432;-63
2022/06/11 01:32:51;;;;;;;11.02;2.92;;;;;;;15.02;100.00;102022.63;5033456;28;20030;-63
2022/06/11 01:35:19;;;;;;;7.35;2.60;;;;;;;15.01;100.00;102026.22;5033276;28;20052;-64
2022/06/11 01:37:53;;;;;;;10.43;2.53;;;;;;;15.01;100.00;102034.22;5031898;28;20028;-63
2022/06/11 01:40:46;;;;;;;7.18;2.47;;;;;;;14.99;100.00;102046.78;5033271;28;20025;-64
2022/06/11 01:43:18;;;;;;;10.30;3.13;;;;;;;14.96;100.00;102039.78;5033001;28;20033;-63
2022/06/11 01:45:45;;;;;;;10.85;3.30;;;;;;;14.92;100.00;102043.50;5033001;28;20029;-60
2022/06/11 01:48:16;;;;;;;11.85;2.85;;;;;;;14.90;100.00;102037.41;5033025;28;20063;-63
2022/06/11 01:50:50;;;;;;;12.40;2.77;;;;;;;14.88;100.00;102047.25;5033271;28;20692;-63
2022/06/11 01:53:50;;;;;;;9.00;2.90;;;;;;;14.84;100.00;102045.66;5031893;28;20803;-64
2022/06/11 01:56:41;;;;;;;10.63;2.90;;;;;;;14.85;100.00;102037.59;5033172;28;20025;-63
2022/06/11 01:59:15;;;;;;;11.77;2.53;;;;;;;14.86;100.00;102043.75;5031678;28;20116;-64
2022/06/11 02:01:56;;;;;;;8.52;2.67;;;;;;;14.83;100.00;102036.78;5031940;28;20036;-64
2022/06/11 02:04:40;;;;;;;8.50;2.40;;;;;;;14.85;100.00;102042.91;5032491;28;20033;-63
2022/06/11 02:07:16;;;;;;;14.15;3.17;;;;;;;14.83;100.00;102051.91;5013323;28;20042;-63
2022/06/11 02:10:08;;;;;;;11.68;2.92;;;;;;;14.83;100.00;102054.59;5012280;28;20081;-63
2022/06/11 02:12:44;;;;;;;13.93;3.08;;;;;;;14.79;100.00;102053.84;5012337;28;20029;-63
2022/06/11 02:15:25;;;;;;;13.10;3.08;;;;;;;14.79;100.00;102053.84;5024560;28;20040;-63
2022/06/11 02:17:57;;;;;;;13.75;2.90;;;;;;;14.72;100.00;102053.25;5031594;28;20427;-64
2022/06/11 02:20:28;;;;;;;11.02;3.15;;;;;;;14.65;100.00;102065.09;5031685;28;20078;-64
2022/06/11 02:23:00;;;;;;;13.23;2.72;;;;;;;14.59;100.00;102052.88;5032791;28;20037;-65
2022/06/11 02:25:35;;;;;;;15.25;3.55;;;;;;;14.53;100.00;102055.78;5022911;28;20124;-63
2022/06/11 02:28:08;;;;;;;9.00;3.03;;;;;;;14.46;100.00;102062.31;5049853;28;20473;-63
2022/06/11 02:30:36;;;;;;;14.25;3.40;;;;;;;14.42;100.00;102058.03;5032468;28;20025;-63
2022/06/11 02:33:02;;;;;;;17.05;3.65;;;;;;;14.39;100.00;102056.38;5032645;28;20036;-63
2022/06/11 02:35:50;;;;;;;13.27;2.90;;;;;;;14.35;100.00;102060.09;5031033;28;20404;-64
2022/06/11 02:38:20;;;;;;;13.30;2.92;;;;;;;14.33;100.00;102058.44;5032122;28;20041;-64
2022/06/11 02:40:50;;;;;;;14.43;2.97;;;;;;;14.32;100.00;102060.22;5032172;28;20017;-65
2022/06/11 02:43:17;;;;;;;14.55;3.30;;;;;;;14.31;100.00;102060.28;5031360;28;20243;-63
2022/06/11 02:45:43;;;;;;;14.88;3.33;;;;;;;14.30;100.00;102062.09;5031946;28;20033;-63
2022/06/11 02:48:10;;;;;;;12.70;3.10;;;;;;;14.33;100.00;102053.09;5031191;28;20025;-63
2022/06/11 02:50:35;;;;;;;17.40;3.63;;;;;;;14.36;100.00;102064.50;5031273;28;20484;-64
2022/06/11 02:53:05;;;;;;;12.55;3.10;;;;;;;14.36;100.00;102063.63;5030528;28;20025;-63
2022/06/11 02:55:30;;;;;;;14.82;3.53;;;;;;;14.36;100.00;102060.94;5032421;28;20079;-63
2022/06/11 02:57:56;;;;;;;15.77;3.15;;;;;;;14.34;100.00;102061.03;5031703;28;20033;-63
2022/06/11 03:00:27;;;;;;;16.90;3.53;;;;;;;14.32;100.00;102070.91;5032187;28;20117;-64
2022/06/11 03:02:53;;;;;;;14.88;3.35;;;;;;;14.28;100.00;102077.25;5032059;28;20017;-64
2022/06/11 03:05:21;;;;;;;15.63;3.45;;;;;;;14.28;100.00;102077.25;5030734;28;20033;-64
2022/06/11 03:07:48;;;;;;;14.38;3.30;;;;;;;14.25;100.00;102080.06;5029778;28;20033;-64
2022/06/11 03:10:16;;;;;;;14.38;3.20;;;;;;;14.25;100.00;102080.06;5029100;28;20083;-64
2022/06/11 03:12:41;;;;;;;10.93;3.25;;;;;;;14.23;100.00;102089.91;5030596;28;20029;-64
2022/06/11 03:15:07;;;;;;;16.60;3.30;;;;;;;14.20;100.00;102092.69;5031146;28;20393;-64
2022/06/11 03:17:32;;;;;;;16.95;3.72;;;;;;;14.19;100.00;102091.81;5029582;28;20087;-64
2022/06/11 03:19:58;;;;;;;19.08;3.38;;;;;;;14.18;100.00;102091.88;5030973;28;20037;-64
2022/06/11 03:22:24;;;;;;;19.98;3.42;;;;;;;14.19;100.00;102090.97;5031565;28;20071;-64
2022/06/11 03:24:49;;;;;;;14.55;3.72;;;;;;;14.20;100.00;102090.88;5031087;28;20029;-64
2022/06/11 03:27:17;;;;;;;17.55;3.60;;;;;;;14.18;100.00;102100.75;5030763;28;20025;-64
2022/06/11 03:29:43;;;;;;;18.30;3.75;;;;;;;14.18;100.00;102094.53;5031199;28;20083;-65
2022/06/11 03:32:08;;;;;;;17.20;3.88;;;;;;;14.16;100.00;102093.75;5031554;28;20025;-64
2022/06/11 03:34:35;;;;;;;15.77;3.47;;;;;;;14.17;100.00;102095.47;5031787;28;20106;-63
2022/06/11 03:37:02;;;;;;;15.57;3.67;;;;;;;14.18;100.00;102099.88;5030366;28;20500;-63
2022/06/11 03:39:27;;;;;;;16.70;4.10;;;;;;;14.20;100.00;102100.69;5029463;28;20040;-65
2022/06/11 03:41:54;;;;;;;15.68;3.20;;;;;;;14.17;100.00;102108.78;5031142;28;20025;-63
2022/06/11 03:44:20;;;;;;;16.50;3.65;;;;;;;14.20;100.00;102108.69;5031429;28;20488;-64
2022/06/11 03:46:45;;;;;;;18.95;3.75;;;;;;;14.21;100.00;102113.94;5030348;28;20083;-64
2022/06/11 03:49:11;;;;;;;16.02;3.30;;;;;;;14.20;100.00;102114.88;5030997;28;20037;-64
2022/06/11 03:51:37;;;;;;;20.95;3.83;;;;;;;14.21;100.00;102119.28;5031167;28;20025;-64
2022/06/11 03:54:03;;;;;;;18.75;3.30;;;;;;;14.25;100.00;102125.34;5031768;28;20530;-64
2022/06/11 03:56:28;;;;;;;21.05;4.00;;;;;;;14.28;100.00;102127.03;5031516;28;20025;-64
2022/06/11 03:58:54;;;;;;;15.57;3.13;;;;;;;14.28;100.00;102122.56;5029712;28;20033;-63
2022/06/11 04:01:21;;;;;;;18.55;3.83;;;;;;;14.29;100.00;102128.75;5030807;28;20030;-63
2022/06/11 04:03:54;;;;;;;21.17;3.55;;;;;;;14.29;100.00;102128.75;5030957;28;20477;-63
2022/06/11 04:06:42;;;;;;;25.15;4.63;;;;;;;14.28;100.00;102130.53;5030925;28;20036;-64
2022/06/11 04:09:13;;;;;;;18.27;3.55;;;;;;;14.25;100.00;102133.34;5030408;28;20053;-63
2022/06/11 04:11:39;;;;;;;18.98;3.80;;;;;;;14.24;100.00;102132.47;5031183;28;20484;-63
2022/06/11 04:14:05;;;;;;;22.45;4.10;;;;;;;14.28;100.00;102141.19;5031489;28;20087;-64
2022/06/11 04:16:42;;;;;;;23.38;4.15;;;;;;;14.31;100.00;102135.78;5013714;28;20026;-64
2022/06/11 04:19:17;;;;;;;17.85;3.53;;;;;;;14.35;100.00;102133.84;5030899;28;20408;-64
2022/06/11 04:21:44;;;;;;;19.85;4.10;;;;;;;14.39;100.00;102135.47;5030765;28;20500;-64
2022/06/11 04:24:10;;;;;;;19.30;4.28;;;;;;;14.39;100.00;102152.31;5030098;28;20034;-64
2022/06/11 04:26:40;;;;;;;19.70;3.90;;;;;;;14.41;100.00;102146.91;5030529;28;20570;-64
2022/06/11 04:29:09;;;;;;;14.88;4.38;;;;;;;14.40;100.00;102158.53;5030859;28;20105;-63
2022/06/11 04:31:36;;;;;;;17.75;4.13;;;;;;;14.42;100.00;102152.19;5021038;28;20029;-63
2022/06/11 04:34:01;;;;;;;19.73;3.92;;;;;;;14.47;100.00;102153.81;5033362;28;20030;-63
2022/06/11 04:36:30;;;;;;;17.80;3.85;;;;;;;14.51;100.00;102164.25;5034662;28;20029;-63
2022/06/11 04:38:56;;;;;;;20.30;4.32;;;;;;;14.56;100.00;102159.63;5034550;28;20536;-63
2022/06/11 04:41:22;;;;;;;22.85;4.00;;;;;;;14.56;100.00;102156.09;5034531;28;20499;-64
2022/06/11 04:43:47;;;;;;;22.95;4.30;;;;;;;14.59;100.00;102161.28;5034584;28;20034;-63
2022/06/11 04:46:14;;;;;;;18.85;4.03;;;;;;;14.63;100.00;102162.03;5033293;28;20477;-64
2022/06/11 04:48:40;;;;;;;20.73;4.38;;;;;;;14.68;100.00;102166.28;5034396;28;20075;-63
2022/06/11 04:51:06;;;;;;;18.98;4.82;;;;;;;14.71;100.00;102166.16;5033005;28;20120;-63
2022/06/11 04:53:31;;;;;;;22.83;4.43;;;;;;;14.81;100.00;102169.31;5033268;28;20025;-64
2022/06/11 04:55:57;;;;;;;21.85;4.78;;;;;;;14.88;100.00;102161.94;5032465;28;20039;-63
2022/06/11 04:58:22;;;;;;;18.30;4.38;;;;;;;14.96;100.00;102174.94;5034438;28;20478;-62
2022/06/11 05:00:48;;;;;;;25.45;5.15;;;;;;;15.02;100.00;102177.34;5034176;28;20037;-65
2022/06/11 05:03:14;;;;;;;23.17;5.07;;;;;;;15.11;100.00;102168.94;5033115;28;20060;-63
2022/06/11 05:05:39;;;;;;;22.95;4.07;;;;;;;15.16;100.00;102174.97;5030668;28;20033;-63
2022/06/11 05:08:05;;;;;;;22.30;4.38;;;;;;;15.31;100.00;102176.09;5032030;28;20409;-64
2022/06/11 05:10:34;;;;;;;26.08;5.10;;;;;;;15.37;100.00;102174.97;5032493;28;20037;-64
2022/06/11 05:13:00;;;;;;;20.27;4.75;;;;;;;15.42;100.00;102170.28;5031288;28;20055;-64
2022/06/11 05:15:25;;;;;;;21.50;4.85;;;;;;;15.45;100.00;102169.28;5032524;28;20385;-65
2022/06/11 05:17:50;;;;;;;16.40;4.22;;;;;;;15.47;100.00;102170.09;5029732;28;20039;-63
2022/06/11 05:20:17;;;;;;;21.08;4.07;;;;;;;15.47;100.00;102173.63;5031891;28;20033;-63
2022/06/11 05:22:45;;;;;;;20.98;5.22;;;;;;;15.54;100.00;102185.78;5033870;28;20100;-63
2022/06/11 05:25:11;;;;;;;29.58;5.18;;;;;;;15.60;100.00;102173.06;5033605;28;20034;-63
2022/06/11 05:27:40;;;;;;;29.55;5.43;;;;;;;15.67;100.00;102171.88;5029115;28;20444;-64
2022/06/11 05:30:11;;;;;;;23.60;4.82;;;;;;;15.76;100.00;102173.28;5031718;28;20104;-65
2022/06/11 05:32:40;;;;;;;21.50;4.57;;;;;;;15.81;100.00;102182.81;5032080;28;20068;-64
2022/06/11 05:35:08;;;;;;;22.50;4.70;;;;;;;15.87;100.00;102189.72;5033437;28;20106;-65
2022/06/11 05:37:34;;;;;;;24.77;5.25;;;;;;;15.97;100.00;102185.69;5031943;28;20377;-64
2022/06/11 05:39:59;;;;;;;23.45;4.97;;;;;;;15.98;100.00;102187.38;5033423;28;20040;-65
2022/06/11 05:42:25;;;;;;;19.27;4.68;;;;;;;15.97;100.00;102190.13;5033309;28;20499;-64
2022/06/11 05:44:52;;;;;;;18.90;4.18;;;;;;;16.02;100.00;102191.69;5031902;28;20072;-64
2022/06/11 05:47:22;;;;;;;21.98;4.80;;;;;;;16.03;100.00;102195.19;5032521;28;20037;-64
2022/06/11 05:49:51;;;;;;;24.75;4.32;;;;;;;16.07;100.00;102194.13;5033445;28;20032;-65
2022/06/11 05:52:20;;;;;;;21.15;4.25;;;;;;;16.15;100.00;102199.09;5033711;28;20064;-65
2022/06/11 05:54:48;;;;;;;28.45;5.65;;;;;;;16.18;100.00;102191.81;5033663;28;20480;-64
2022/06/11 05:57:17;;;;;;;15.65;4.15;;;;;;;16.14;100.00;102200.03;5031894;28;20485;-65
2022/06/11 05:59:47;;;;;;;25.55;5.15;;;;;;;16.21;100.00;102199.69;5030650;28;20021;-64
2022/06/11 06:02:15;;;;;;;24.27;4.55;;;;;;;16.22;100.00;102200.56;5031939;28;20025;-64
2022/06/11 06:04:41;;;;;;;22.85;4.38;;;;;;;16.31;100.00;102204.59;5031731;28;20116;-64
2022/06/11 06:07:08;;;;;;;15.88;3.95;;;;;;;16.30;100.00;102201.03;5030815;28;20481;-64
2022/06/11 06:09:34;;;;;;;16.00;3.53;;;;;;;16.35;100.00;102201.69;5032356;28;20052;-64
2022/06/11 06:12:00;;;;;;;19.85;4.05;;;;;;;16.36;99.33;102208.78;5031265;28;20477;-64
2022/06/11 06:14:25;;;;;;;22.20;4.10;;;;;;;16.41;99.31;102200.56;5032907;28;20167;-64
2022/06/11 06:16:51;;;;;;;19.42;4.03;;;;;;;16.43;98.91;102201.31;5014920;28;20393;-65
2022/06/11 06:19:17;;;;;;;19.55;3.75;;;;;;;16.49;98.60;102192.16;5032566;28;20120;-64
2022/06/11 06:21:42;;;;;;;19.30;3.75;;;;;;;16.52;98.30;102198.22;5032523;28;20496;-64
2022/06/11 06:24:08;;;;;;;18.63;4.30;;;;;;;16.61;95.48;102204.06;5031734;28;20029;-65
2022/06/11 06:26:34;;;;;;;19.90;3.75;;;;;;;16.67;95.18;102209.13;5032336;28;20073;-63
2022/06/11 06:28:59;;;;;;;16.17;3.70;;;;;;;16.75;94.89;102209.59;5032423;28;20065;-63
2022/06/11 06:31:25;;;;;;;21.90;4.07;;;;;;;16.71;93.68;102211.59;5032738;28;20025;-62
2022/06/11 06:33:56;;;;;;;20.75;4.03;;;;;;;16.71;93.75;102213.38;5031571;28;20032;-64
2022/06/11 06:36:22;;;;;;;14.13;3.40;;;;;;;16.79;90.86;102215.66;5026514;28;20033;-64
2022/06/11 06:38:47;;;;;;;20.48;3.90;;;;;;;16.84;89.87;102202.94;5031040;28;20485;-64
2022/06/11 06:41:14;;;;;;;16.15;3.10;;;;;;;16.84;89.12;102214.50;5032063;28;20056;-64
2022/06/11 06:43:39;;;;;;;19.00;4.57;;;;;;;16.78;88.70;102228.19;5031189;28;20484;-64
2022/06/11 06:46:05;;;;;;;14.20;2.92;;;;;;;16.87;85.77;102221.53;5032317;28;20116;-64
2022/06/11 06:48:31;;;;;;;18.02;3.95;;;;;;;16.93;86.53;102226.59;5031837;28;20025;-63
2022/06/11 06:50:57;;;;;;;18.45;3.90;;;;;;;16.96;87.45;102230.94;5030548;28;20048;-64
2022/06/11 06:53:23;;;;;;;18.33;3.55;;;;;;;16.97;89.08;102225.50;5017364;28;20041;-64
2022/06/11 06:55:49;;;;;;;17.15;3.72;;;;;;;17.04;89.68;102226.06;5028429;28;20037;-64
2022/06/11 06:58:15;;;;;;;18.05;3.75;;;;;;;17.12;86.43;102228.34;5031078;28;20038;-63
2022/06/11 07:00:42;;;;;;;23.98;4.40;;;;;;;17.08;87.90;102222.28;5031491;28;20029;-64
2022/06/11 07:03:08;;;;;;;15.65;3.95;;;;;;;17.16;88.48;102229.91;5030241;28;20096;-64
2022/06/11 07:05:34;;;;;;;16.70;3.53;;;;;;;17.26;85.81;102231.19;5014246;28;20125;-64
2022/06/11 07:07:59;;;;;;;15.52;3.20;;;;;;;17.34;83.81;102230.78;5031594;28;21315;-64
2022/06/11 07:10:25;;;;;;;17.63;4.18;;;;;;;17.32;84.59;102230.03;5031631;28;20040;-63
2022/06/11 07:12:51;;;;;;;14.23;3.53;;;;;;;17.40;83.70;102234.97;5032206;28;20106;-64
2022/06/11 07:15:17;;;;;;;20.02;4.35;;;;;;;17.39;82.95;102228.75;5029219;28;20121;-64
2022/06/11 07:17:52;;;;;;;20.02;4.72;;;;;;;17.40;83.41;102238.50;5029491;28;20079;-64
2022/06/11 07:20:22;;;;;;;12.40;3.20;;;;;;;17.45;82.78;102239.13;5023859;28;20095;-64
2022/06/11 07:22:55;;;;;;;14.95;3.22;;;;;;;17.53;82.17;102228.91;5027252;28;20067;-65
2022/06/11 07:25:21;;;;;;;21.67;3.70;;;;;;;17.52;79.46;102232.53;5029470;28;20026;-65
2022/06/11 07:27:51;;;;;;;15.88;3.35;;;;;;;17.54;78.74;102229.75;5031025;28;20029;-64
2022/06/11 07:30:21;;;;;;;15.55;3.38;;;;;;;17.66;78.76;102231.81;5031457;28;20509;-65
2022/06/11 07:32:51;;;;;;;11.15;2.80;;;;;;;17.71;76.67;102250.34;5030442;28;20481;-63
2022/06/11 07:35:17;;;;;;;14.23;3.47;;;;;;;17.72;75.63;102243.16;5023870;28;20124;-64
2022/06/11 07:37:44;;;;;;;16.67;3.40;;;;;;;17.74;75.90;102241.25;5021682;28;20537;-63
2022/06/11 07:40:11;;;;;;;13.85;3.08;;;;;;;17.74;71.21;102217.16;5036451;28;20044;-63
2022/06/11 07:42:36;;;;;;;14.85;2.67;;;;;;;17.76;71.44;102245.59;4994167;28;20049;-64
2022/06/11 07:45:02;;;;;;;16.42;3.10;;;;;;;17.85;72.93;102234.38;5025506;28;20464;-63
2022/06/11 07:50:12;;;;;;;12.18;3.63;;;;;;;18.06;74.06;102244.06;5026368;28;20036;-65
2022/06/11 07:52:39;;;;;;;13.80;3.30;;;;;;;18.12;72.14;102241.03;5022740;28;20033;-64
2022/06/11 07:55:05;;;;;;;12.65;3.22;;;;;;;18.10;72.15;102243.78;5018687;28;20095;-63
2022/06/11 07:57:31;;;;;;;14.27;3.08;;;;;;;18.22;72.79;102249.44;5025980;28;20477;-64
2022/06/11 07:59:56;;;;;;;16.48;3.35;;;;;;;18.29;71.79;102249.03;5029919;28;20033;-64
2022/06/11 08:02:22;;;;;;;10.77;2.95;;;;;;;18.38;71.26;102255.69;5029338;28;20057;-65
2022/06/11 08:04:47;;;;;;;15.00;3.30;;;;;;;18.46;70.06;102255.25;5029658;28;20033;-64
2022/06/11 08:07:12;;;;;;;13.02;2.85;;;;;;;18.49;68.79;102253.28;5029735;28;20053;-64
2022/06/11 08:09:38;;;;;;;15.98;3.55;;;;;;;18.44;68.27;102259.84;5031018;28;20045;-64
2022/06/11 08:12:03;;;;;;;14.02;3.08;;;;;;;18.53;67.90;102266.50;5033517;28;20368;-64
2022/06/11 08:14:29;;;;;;;13.32;3.08;;;;;;;18.64;67.94;102261.41;5032565;28;20100;-64
2022/06/11 08:16:54;;;;;;;17.08;2.92;;;;;;;18.79;66.59;102262.38;5032464;28;20487;-64
2022/06/11 08:19:21;;;;;;;13.52;2.90;;;;;;;18.80;66.02;102266.78;5031329;28;20164;-64
2022/06/11 08:21:46;;;;;;;11.27;2.70;;;;;;;18.88;66.72;102263.66;5031242;28;20040;-64
2022/06/11 08:24:11;;;;;;;12.25;2.60;;;;;;;18.99;65.89;102264.81;5031351;28;20042;-65
2022/06/11 08:26:37;;;;;;;14.90;3.22;;;;;;;19.08;64.20;102265.22;5032961;28;20025;-64
2022/06/11 08:29:03;;;;;;;15.15;3.10;;;;;;;19.15;63.04;102270.13;5029698;28;20445;-64
2022/06/11 08:31:28;;;;;;;10.82;2.72;;;;;;;19.18;67.06;102268.22;5025339;28;20144;-65
2022/06/11 08:33:54;;;;;;;13.43;3.00;;;;;;;19.32;63.96;102269.16;5030208;28;20033;-64
2022/06/11 08:36:19;;;;;;;11.38;2.85;;;;;;;19.42;65.12;102258.72;5030105;28;20108;-65
2022/06/11 08:38:44;;;;;;;9.55;3.00;;;;;;;20.67;56.90;102250.09;5034022;28;20440;-64
2022/06/11 08:41:20;;;;;;;14.38;3.22;;;;;;;21.90;52.19;102256.25;5034556;28;20029;-64
2022/06/11 08:44:01;;;;;;;10.27;2.67;;;;;;;22.95;48.42;102255.91;5027299;28;20057;-63
2022/06/11 08:46:30;;;;;;;12.98;3.03;;;;;;;23.89;43.42;102259.53;5029924;28;20025;-64
2022/06/11 08:49:04;;;;;;;13.07;3.38;;;;;;;24.56;41.75;102257.78;5033910;28;20095;-63
2022/06/11 08:51:32;;;;;;;12.13;3.47;;;;;;;25.27;39.98;102257.34;5033295;28;20095;-64
2022/06/11 08:54:01;;;;;;;11.60;2.92;;;;;;;25.45;39.32;102256.75;5034401;28;20116;-64
2022/06/11 08:56:26;;;;;;;11.90;3.17;;;;;;;24.58;40.76;102263.06;5033356;28;20029;-64
2022/06/11 08:59:18;;;;;;;11.35;3.22;;;;;;;24.43;41.68;102254.38;5033481;28;20036;-65
2022/06/11 09:02:06;;;;;;;14.75;3.13;;;;;;;23.46;43.46;102247.53;5027338;28;20489;-64
2022/06/11 09:04:53;;;;;;;11.45;2.95;;;;;;;22.67;46.66;102255.28;5022601;28;20535;-64
2022/06/11 09:07:56;;;;;;;11.27;3.15;;;;;;;23.84;43.75;102249.06;5035369;28;20473;-64
2022/06/11 09:10:40;;;;;;;17.10;3.30;;;;;;;24.41;41.39;102259.91;5038017;28;20037;-64
2022/06/11 09:13:54;;;;;;;13.38;3.40;;;;;;;23.67;44.79;102250.41;5026456;28;20075;-64
2022/06/11 09:16:28;;;;;;;16.10;3.78;;;;;;;24.27;43.91;102250.22;4995916;28;20042;-63
2022/06/11 09:19:20;;;;;;;13.77;3.35;;;;;;;24.37;44.67;102245.78;5014592;28;20030;-64
2022/06/11 09:22:36;;;;;;;16.15;3.92;;;;;;;25.27;42.61;102242.91;5033677;28;20029;-63
2022/06/11 09:25:24;;;;;;;15.77;3.45;;;;;;;26.28;40.27;102237.78;5007326;28;20124;-63
2022/06/11 09:27:59;;;;;;;12.70;3.50;;;;;;;26.99;37.35;102239.50;5032450;28;20116;-64
2022/06/11 09:30:41;;;;;;;15.80;3.78;;;;;;;26.50;39.29;102247.56;5031972;28;20515;-64
2022/06/11 09:33:16;;;;;;;15.30;3.67;;;;;;;26.92;37.12;102247.38;5033604;28;20025;-65
2022/06/11 09:35:58;;;;;;;14.63;3.40;;;;;;;27.08;35.49;102249.50;5032897;28;20025;-64
2022/06/11 09:38:51;;;;;;;13.35;3.30;;;;;;;25.80;40.01;102255.56;5031464;28;20030;-64
2022/06/11 09:42:14;;;;;;;11.95;3.30;;;;;;;25.22;41.39;102253.28;5039755;28;20029;-64
2022/06/11 09:45:05;;;;;;;14.80;3.33;;;;;;;26.05;39.22;102254.28;5003974;28;20041;-64
2022/06/11 09:47:48;;;;;;;14.40;3.20;;;;;;;26.77;38.91;102246.91;5037959;28;20033;-64
2022/06/11 09:50:28;;;;;;;14.05;3.33;;;;;;;27.23;36.85;102241.75;5041340;28;20495;-64
2022/06/11 09:53:03;;;;;;;12.68;3.35;;;;;;;26.95;36.66;102255.22;5036445;28;20025;-64
2022/06/11 09:55:38;;;;;;;14.98;3.42;;;;;;;27.01;37.15;102250.22;5040116;28;20025;-64
2022/06/11 09:58:39;;;;;;;13.82;3.63;;;;;;;26.00;38.63;102256.53;5034475;28;20084;-63
2022/06/11 10:01:12;;;;;;;14.93;3.80;;;;;;;26.07;38.72;102257.72;5024201;28;20041;-64
2022/06/11 10:03:51;;;;;;;10.00;3.20;;;;;;;25.59;39.33;102274.56;5015601;28;20029;-65
2022/06/11 10:06:24;;;;;;;15.43;3.63;;;;;;;25.11;40.95;102268.59;5021410;28;20039;-64
2022/06/11 10:08:55;;;;;;;15.07;3.30;;;;;;;25.14;42.63;102271.06;5030815;28;20051;-64
2022/06/11 10:11:28;;;;;;;12.77;3.58;;;;;;;26.10;39.40;102271.03;5030892;28;20034;-62
2022/06/11 10:17:22;;;;;;;14.45;3.50;;;;;;;26.52;41.55;102264.56;5032605;28;20424;-62
2022/06/11 10:20:03;;;;;;;15.13;3.80;;;;;;;27.05;38.36;102266.09;5015260;28;20496;-63
2022/06/11 10:22:32;;;;;;;14.32;4.20;;;;;;;25.70;44.27;102273.63;5032379;28;20163;-63
2022/06/11 10:25:16;;;;;;;23.67;4.85;;;;;;;25.57;47.46;102279.28;5031819;28;20031;-63
2022/06/11 10:27:50;;;;;;;14.82;3.83;;;;;;;26.50;42.59;102275.56;5031796;28;20504;-63
2022/06/11 10:30:34;;;;;;;16.02;3.72;;;;;;;27.21;41.55;102287.28;5026780;28;20057;-64
2022/06/11 10:33:04;;;;;;;13.20;3.88;;;;;;;26.01;39.34;102282.63;5023905;28;20033;-64
2022/06/11 10:35:38;;;;;;;13.95;3.45;;;;;;;24.48;43.09;102295.47;5032413;28;20040;-63
2022/06/11 10:38:32;;;;;;;13.48;3.67;;;;;;;24.74;43.66;102284.38;5028617;28;20366;-63
2022/06/11 10:41:01;;;;;;;15.55;3.70;;;;;;;25.32;40.64;102294.88;5031305;28;20037;-64
2022/06/11 10:43:39;;;;;;;15.35;3.45;;;;;;;25.01;43.04;102290.22;5024971;28;20049;-65
2022/06/11 10:46:09;;;;;;;15.73;3.78;;;;;;;25.65;42.02;102277.63;5025952;28;20032;-63
2022/06/11 10:48:36;;;;;;;12.80;3.30;;;;;;;26.42;40.11;102280.84;5030137;28;20096;-64
2022/06/11 10:51:14;;;;;;;10.73;3.10;;;;;;;27.30;34.97;102280.13;5028619;28;20025;-64
2022/06/11 10:53:55;;;;;;;13.68;3.30;;;;;;;26.95;36.16;102279.69;5025026;28;20480;-64
2022/06/11 10:56:30;;;;;;;12.13;3.50;;;;;;;27.13;36.77;102277.09;5020524;28;20127;-66
2022/06/11 10:59:01;;;;;;;14.15;3.75;;;;;;;27.50;37.52;102269.25;5030553;28;20064;-64
2022/06/11 11:01:32;;;;;;;11.57;3.83;;;;;;;26.92;37.78;102279.97;5031484;28;20481;-64
2022/06/11 11:04:17;;;;;;;13.93;3.95;;;;;;;27.03;38.04;102276.25;5028114;28;20308;-65
2022/06/11 11:06:43;;;;;;;13.68;2.97;;;;;;;27.26;37.71;102275.97;5022071;28;20026;-61
2022/06/11 11:09:22;;;;;;;11.25;3.60;;;;;;;27.39;37.26;102284.75;5023173;28;20133;-61
2022/06/11 11:11:55;;;;;;;15.88;4.25;;;;;;;27.60;37.64;102275.53;5024591;28;20061;-63
2022/06/11 11:14:40;;;;;;;13.55;3.20;;;;;;;27.40;37.34;102289.16;5029812;28;20473;-63
2022/06/11 11:17:15;;;;;;;13.68;3.65;;;;;;;26.90;37.41;102279.25;5025268;28;20028;-63
2022/06/11 11:19:45;;;;;;;11.45;3.20;;;;;;;26.69;35.75;102281.19;5026453;28;20021;-63
2022/06/11 11:22:19;;;;;;;13.13;3.42;;;;;;;25.74;39.60;102278.63;5023235;28;20037;-63
2022/06/11 11:24:52;;;;;;;14.75;3.17;;;;;;;26.07;37.85;102268.56;5026888;28;20030;-62
2022/06/11 11:27:25;;;;;;;13.13;3.03;;;;;;;25.03;39.29;102279.25;5028919;28;20107;-62
2022/06/11 11:29:54;;;;;;;10.55;3.17;;;;;;;24.40;40.13;102278.97;5030723;28;20055;-64
2022/06/11 11:32:35;;;;;;;14.40;3.63;;;;;;;25.05;41.29;102279.97;5031006;28;20076;-63
2022/06/11 11:35:27;;;;;;;11.70;3.70;;;;;;;25.38;39.31;102278.13;5031197;28;20036;-63
2022/06/11 11:38:12;;;;;;;13.25;3.10;;;;;;;24.51;42.07;102287.94;5030695;28;20396;-62
2022/06/11 11:40:57;;;;;;;12.05;3.25;;;;;;;24.08;44.33;102283.31;5031626;28;20088;-63